createdAt,value
2022-10-28T00:01:07.598Z,24.70
2022-10-28T00:03:39.563Z,24.70
2022-10-28T00:06:09.788Z,24.70
2022-10-28T00:08:37.855Z,24.70
2022-10-28T00:11:07.825Z,24.70
2022-10-28T00:13:37.216Z,24.70
2022-10-28T00:16:11.973Z,24.60
2022-10-28T00:18:40.768Z,24.60
2022-10-28T00:21:10.636Z,24.60
2022-10-28T00:23:38.839Z,24.60
2022-10-28T00:26:08.976Z,24.60
2022-10-28T00:28:40.856Z,24.60
2022-10-28T00:31:12.407Z,24.60
2022-10-28T00:33:40.468Z,24.50
2022-10-28T00:36:10.098Z,24.50
2022-10-28T00:38:38.469Z,24.50
2022-10-28T00:41:06.769Z,24.50
2022-10-28T00:43:36.455Z,24.40
2022-10-28T00:46:06.261Z,24.50
2022-10-28T00:48:35.458Z,24.40
2022-10-28T00:51:05.445Z,24.40
2022-10-28T00:53:33.772Z,24.40
2022-10-28T00:56:04.698Z,24.40
2022-10-28T00:58:33.708Z,24.40
2022-10-28T01:01:01.939Z,24.40
2022-10-28T01:03:30.125Z,24.40
2022-10-28T01:06:01.088Z,24.40
2022-10-28T01:08:29.386Z,24.30
2022-10-28T01:11:13.187Z,24.30
2022-10-28T01:13:54.084Z,24.40
2022-10-28T01:16:34.177Z,24.30
2022-10-28T01:19:25.751Z,24.30
2022-10-28T01:22:17.419Z,24.30
2022-10-28T01:25:10.468Z,24.30
2022-10-28T01:28:02.449Z,24.30
2022-10-28T01:30:40.503Z,24.30
2022-10-28T01:33:14.823Z,24.20
2022-10-28T01:35:50.901Z,24.20
2022-10-28T01:38:29.685Z,24.20
2022-10-28T01:41:06.788Z,24.20
2022-10-28T01:43:41.636Z,24.20
2022-10-28T01:46:15.865Z,24.20
2022-10-28T01:48:49.195Z,24.20
2022-10-28T01:51:24.488Z,24.10
2022-10-28T01:53:54.849Z,24.20
2022-10-28T01:56:28.255Z,24.20
2022-10-28T01:59:00.446Z,24.20
2022-10-28T02:01:30.795Z,24.10
2022-10-28T02:04:00.591Z,24.10
2022-10-28T02:06:32.394Z,24.10
2022-10-28T02:09:11.302Z,24.10
2022-10-28T02:12:02.283Z,24.10
2022-10-28T02:14:56.129Z,24.10
2022-10-28T02:17:36.565Z,24.10
2022-10-28T02:20:15.394Z,24.10
2022-10-28T02:22:48.437Z,24.00
2022-10-28T02:25:20.909Z,24.00
2022-10-28T02:27:57.594Z,24.00
2022-10-28T02:30:30.019Z,24.00
2022-10-28T02:33:00.605Z,24.00
2022-10-28T02:35:35.661Z,24.00
2022-10-28T02:38:08.775Z,24.00
2022-10-28T02:40:38.532Z,24.00
2022-10-28T02:43:10.980Z,24.00
2022-10-28T02:45:42.188Z,23.90
2022-10-28T02:48:13.932Z,23.90
2022-10-28T02:50:50.347Z,23.90
2022-10-28T02:55:58.225Z,23.90
2022-10-28T02:58:26.533Z,23.90
2022-10-28T03:00:54.617Z,23.90
2022-10-28T03:03:22.789Z,23.90
2022-10-28T03:05:52.204Z,23.90
2022-10-28T03:08:20.290Z,23.90
2022-10-28T03:10:48.467Z,23.80
2022-10-28T03:13:16.538Z,23.90
2022-10-28T03:15:44.640Z,23.80
2022-10-28T03:18:12.719Z,23.80
2022-10-28T03:20:40.743Z,23.80
2022-10-28T03:23:10.333Z,23.80
2022-10-28T03:25:38.367Z,23.70
2022-10-28T03:28:06.690Z,23.70
2022-10-28T03:30:34.746Z,23.70
2022-10-28T03:33:02.846Z,23.70
2022-10-28T03:35:31.187Z,23.70
2022-10-28T03:37:59.316Z,23.70
2022-10-28T03:40:28.745Z,23.70
2022-10-28T03:42:57.037Z,23.70
2022-10-28T03:45:25.207Z,23.60
2022-10-28T03:47:53.690Z,23.60
2022-10-28T03:50:22.004Z,23.60
2022-10-28T03:52:50.101Z,23.60
2022-10-28T03:55:18.429Z,23.60
2022-10-28T03:57:48.194Z,23.60
2022-10-28T04:00:17.505Z,23.60
2022-10-28T04:02:51.064Z,23.50
2022-10-28T04:05:19.574Z,23.60
2022-10-28T04:07:48.099Z,23.50
2022-10-28T04:10:16.386Z,23.60
2022-10-28T04:12:44.608Z,23.50
2022-10-28T04:15:14.051Z,23.50
2022-10-28T04:17:42.137Z,23.50
2022-10-28T04:20:10.805Z,23.50
2022-10-28T04:22:38.994Z,23.50
2022-10-28T04:25:07.570Z,23.50
2022-10-28T04:27:35.877Z,23.50
2022-10-28T04:30:04.408Z,23.40
2022-10-28T04:32:33.958Z,23.40
2022-10-28T04:35:01.989Z,23.40
2022-10-28T04:37:30.050Z,23.40
2022-10-28T04:39:58.290Z,23.40
2022-10-28T04:42:26.455Z,23.40
2022-10-28T04:44:54.565Z,23.40
2022-10-28T04:47:22.731Z,23.40
2022-10-28T04:49:52.131Z,23.40
2022-10-28T04:52:20.313Z,23.30
2022-10-28T04:54:48.480Z,23.30
2022-10-28T04:57:16.555Z,23.20
2022-10-28T04:59:44.635Z,23.20
2022-10-28T05:02:12.846Z,23.20
2022-10-28T05:04:41.112Z,23.20
2022-10-28T05:07:10.701Z,23.20
2022-10-28T05:09:38.743Z,23.10
2022-10-28T05:12:07.872Z,23.10
2022-10-28T05:14:36.060Z,23.10
2022-10-28T05:17:04.239Z,23.10
2022-10-28T05:19:32.305Z,23.10
2022-10-28T05:22:00.443Z,23.00
2022-10-28T05:24:29.860Z,23.00
2022-10-28T05:27:00.000Z,23.00
2022-10-28T05:29:33.057Z,23.00
2022-10-28T05:32:01.679Z,23.00
2022-10-28T05:34:29.852Z,23.00
2022-10-28T05:36:57.971Z,23.00
2022-10-28T05:39:26.285Z,22.90
2022-10-28T05:41:55.691Z,23.00
2022-10-28T05:44:24.011Z,23.00
2022-10-28T05:46:52.133Z,22.90
2022-10-28T05:49:20.445Z,22.90
2022-10-28T05:51:48.725Z,22.90
2022-10-28T05:54:16.853Z,22.90
2022-10-28T05:56:44.923Z,22.80
2022-10-28T05:59:14.366Z,22.90
2022-10-28T06:01:42.835Z,22.80
2022-10-28T06:04:11.128Z,22.90
2022-10-28T06:06:39.450Z,22.80
2022-10-28T06:09:07.568Z,22.80
2022-10-28T06:11:35.049Z,22.80
2022-10-28T06:14:03.273Z,22.80
2022-10-28T06:16:32.887Z,22.70
2022-10-28T06:19:01.259Z,22.70
2022-10-28T06:21:29.279Z,22.70
2022-10-28T06:23:57.597Z,22.70
2022-10-28T06:26:25.666Z,22.60
2022-10-28T06:28:53.735Z,22.60
2022-10-28T06:31:21.842Z,22.70
2022-10-28T06:33:51.385Z,22.70
2022-10-28T06:36:19.588Z,22.70
2022-10-28T06:38:47.729Z,22.80
2022-10-28T06:41:15.778Z,22.80
2022-10-28T06:43:43.863Z,22.90
2022-10-28T06:46:11.898Z,22.90
2022-10-28T06:48:41.669Z,22.90
2022-10-28T06:51:11.358Z,23.00
2022-10-28T06:53:39.572Z,23.00
2022-10-28T06:56:08.421Z,23.00
2022-10-28T06:58:36.499Z,23.00
2022-10-28T07:01:05.644Z,23.00
2022-10-28T07:03:33.814Z,23.10
2022-10-28T07:06:02.379Z,23.10
2022-10-28T07:08:32.696Z,23.20
2022-10-28T07:11:02.583Z,23.20
2022-10-28T07:13:30.582Z,23.20
2022-10-28T07:16:00.504Z,23.30
2022-10-28T07:18:29.514Z,23.40
2022-10-28T07:21:00.197Z,23.40
2022-10-28T07:23:28.795Z,23.50
2022-10-28T07:25:58.639Z,23.50
2022-10-28T07:28:27.431Z,23.60
2022-10-28T07:30:55.564Z,23.60
2022-10-28T07:33:23.635Z,23.70
2022-10-28T07:35:51.665Z,23.70
2022-10-28T07:38:19.773Z,23.70
2022-10-28T07:40:47.806Z,23.70
2022-10-28T07:43:17.357Z,23.70
2022-10-28T07:45:45.429Z,23.70
2022-10-28T07:48:13.594Z,23.80
2022-10-28T07:50:41.926Z,23.80
2022-10-28T07:53:10.150Z,23.80
2022-10-28T07:55:38.279Z,23.80
2022-10-28T07:58:06.353Z,23.90
2022-10-28T08:00:35.925Z,23.90
2022-10-28T08:03:04.476Z,24.10
2022-10-28T08:05:32.576Z,24.20
2022-10-28T08:08:00.653Z,24.50
2022-10-28T08:10:28.915Z,24.70
2022-10-28T08:12:58.089Z,24.70
2022-10-28T08:15:26.329Z,24.80
2022-10-28T08:17:56.189Z,24.90
2022-10-28T08:20:24.819Z,24.80
2022-10-28T08:22:53.096Z,24.80
2022-10-28T08:25:21.439Z,24.90
2022-10-28T08:27:49.497Z,25.20
2022-10-28T08:30:17.663Z,25.40
2022-10-28T08:32:45.726Z,25.60
2022-10-28T08:35:15.335Z,25.80
2022-10-28T08:37:46.149Z,26.00
2022-10-28T08:40:14.934Z,26.20
2022-10-28T08:42:48.765Z,26.40
2022-10-28T08:45:24.370Z,26.50
2022-10-28T08:48:06.785Z,26.80
2022-10-28T08:50:44.843Z,27.00
2022-10-28T08:53:17.999Z,27.30
2022-10-28T08:55:49.723Z,27.50
2022-10-28T08:58:23.121Z,27.70
2022-10-28T09:00:54.690Z,28.00
2022-10-28T09:03:25.478Z,28.20
2022-10-28T09:06:01.924Z,28.50
2022-10-28T09:08:32.895Z,28.80
2022-10-28T09:11:27.882Z,29.00
2022-10-28T09:14:13.017Z,29.10
2022-10-28T09:16:47.113Z,29.30
2022-10-28T09:19:40.401Z,29.40
2022-10-28T09:22:22.810Z,29.50
2022-10-28T09:24:54.460Z,29.30
2022-10-28T09:27:45.018Z,29.10
2022-10-28T09:30:32.501Z,29.00
2022-10-28T09:33:09.955Z,29.00
2022-10-28T09:35:42.616Z,29.20
2022-10-28T09:38:28.181Z,29.60
2022-10-28T09:41:00.794Z,30.00
2022-10-28T09:43:32.820Z,30.40
2022-10-28T09:46:04.971Z,30.90
2022-10-28T09:48:35.120Z,31.20
2022-10-28T09:51:04.084Z,31.60
2022-10-28T09:53:45.484Z,31.90
2022-10-28T09:56:13.597Z,32.70
2022-10-28T09:58:46.707Z,33.60
2022-10-28T10:01:15.401Z,34.30
2022-10-28T10:03:45.287Z,34.80
2022-10-28T10:06:16.698Z,34.70
2022-10-28T10:08:47.233Z,34.40
2022-10-28T10:11:25.878Z,34.30
2022-10-28T10:13:55.090Z,34.60
2022-10-28T10:16:31.244Z,35.20
2022-10-28T10:19:02.152Z,35.90
2022-10-28T10:21:43.410Z,36.30
2022-10-28T10:24:28.825Z,36.10
2022-10-28T10:26:57.840Z,35.60
2022-10-28T10:29:26.762Z,35.30
2022-10-28T10:32:18.224Z,34.90
2022-10-28T10:34:50.677Z,35.00
2022-10-28T10:37:22.228Z,35.30
2022-10-28T10:40:04.664Z,36.30
2022-10-28T10:42:39.149Z,37.20
2022-10-28T10:45:22.939Z,36.90
2022-10-28T10:48:06.136Z,37.00
2022-10-28T10:50:34.669Z,37.80
2022-10-28T10:53:03.146Z,38.60
2022-10-28T10:55:37.784Z,38.60
2022-10-28T10:58:07.523Z,38.70
2022-10-28T11:00:38.608Z,39.10
2022-10-28T11:03:13.433Z,39.80
2022-10-28T11:05:55.172Z,40.50
2022-10-28T11:08:40.273Z,41.10
2022-10-28T11:11:14.281Z,40.20
2022-10-28T11:13:46.062Z,38.70
2022-10-28T11:16:22.895Z,37.70
2022-10-28T11:18:53.045Z,37.70
2022-10-28T11:21:43.208Z,37.20
2022-10-28T11:24:41.617Z,36.50
2022-10-28T11:27:26.359Z,36.10
2022-10-28T11:29:55.690Z,35.60
2022-10-28T11:33:01.315Z,35.30
2022-10-28T11:35:44.874Z,35.00
2022-10-28T11:38:25.757Z,34.90
2022-10-28T11:41:11.059Z,34.80
2022-10-28T11:43:54.322Z,35.10
2022-10-28T11:46:38.150Z,35.40
2022-10-28T11:49:45.674Z,35.20
2022-10-28T11:52:25.503Z,35.20
2022-10-28T11:55:04.477Z,35.90
2022-10-28T11:57:48.939Z,36.40
2022-10-28T12:00:32.881Z,36.50
2022-10-28T12:03:16.463Z,36.20
2022-10-28T12:05:49.209Z,35.70
2022-10-28T12:08:28.763Z,35.20
2022-10-28T12:11:09.651Z,34.70
2022-10-28T12:13:45.619Z,34.20
2022-10-28T12:16:22.466Z,33.70
2022-10-28T12:18:56.414Z,33.20
2022-10-28T12:21:32.424Z,32.90
2022-10-28T12:24:01.295Z,32.50
2022-10-28T12:26:36.990Z,32.20
2022-10-28T12:29:09.072Z,32.00
2022-10-28T12:31:46.437Z,31.80
2022-10-28T12:34:19.446Z,31.50
2022-10-28T12:36:51.542Z,31.40
2022-10-28T12:39:23.678Z,31.30
2022-10-28T12:41:58.854Z,31.30
2022-10-28T12:44:29.532Z,31.40
2022-10-28T12:47:08.397Z,31.70
2022-10-28T12:49:46.680Z,32.00
2022-10-28T12:52:23.373Z,32.20
2022-10-28T12:54:59.076Z,32.30
2022-10-28T12:57:28.289Z,32.30
2022-10-28T13:00:02.497Z,32.30
2022-10-28T13:02:38.249Z,32.40
2022-10-28T13:05:07.537Z,32.60
2022-10-28T13:08:04.469Z,32.90
2022-10-28T13:10:39.748Z,33.30
2022-10-28T13:13:32.614Z,33.00
2022-10-28T13:16:28.544Z,32.70
2022-10-28T13:19:18.900Z,32.20
2022-10-28T13:22:09.740Z,32.00
2022-10-28T13:24:46.554Z,32.00
2022-10-28T13:27:16.185Z,32.20
2022-10-28T13:29:50.907Z,32.40
2022-10-28T13:32:35.600Z,32.50
2022-10-28T13:35:18.104Z,32.30
2022-10-28T13:37:48.642Z,32.30
2022-10-28T13:40:44.721Z,32.20
2022-10-28T13:43:20.370Z,32.20
2022-10-28T13:45:52.538Z,32.20
2022-10-28T13:48:55.324Z,32.20
2022-10-28T13:51:46.597Z,32.20
2022-10-28T13:54:27.830Z,32.30
2022-10-28T13:57:02.253Z,32.50
2022-10-28T13:59:36.674Z,32.60
2022-10-28T14:02:33.864Z,32.70
2022-10-28T14:05:06.627Z,32.80
2022-10-28T14:07:39.410Z,32.90
2022-10-28T14:10:28.989Z,32.80
2022-10-28T14:13:00.719Z,32.40
2022-10-28T14:15:31.903Z,32.30
2022-10-28T14:18:15.884Z,32.20
2022-10-28T14:21:00.785Z,32.00
2022-10-28T14:24:06.063Z,31.70
2022-10-28T14:27:05.589Z,31.70
2022-10-28T14:29:43.713Z,31.50
2022-10-28T14:32:43.292Z,31.10
2022-10-28T14:35:24.824Z,30.80
2022-10-28T14:38:29.115Z,30.60
2022-10-28T14:41:08.048Z,30.40
2022-10-28T14:43:51.705Z,30.30
2022-10-28T14:46:49.589Z,30.30
2022-10-28T14:49:22.241Z,30.30
2022-10-28T14:51:51.824Z,30.30
2022-10-28T14:54:25.597Z,30.10
2022-10-28T14:56:57.664Z,30.10
2022-10-28T14:59:28.699Z,30.00
2022-10-28T15:02:11.868Z,29.90
2022-10-28T15:04:42.724Z,29.70
2022-10-28T15:07:14.637Z,29.70
2022-10-28T15:09:44.577Z,29.60
2022-10-28T15:12:16.834Z,29.50
2022-10-28T15:14:48.319Z,29.40
2022-10-28T15:17:19.293Z,29.30
2022-10-28T15:19:49.387Z,29.40
2022-10-28T15:22:22.713Z,29.40
2022-10-28T15:24:58.878Z,29.40
2022-10-28T15:27:31.470Z,29.20
2022-10-28T15:30:00.069Z,29.10
2022-10-28T15:32:37.349Z,29.00
2022-10-28T15:35:39.898Z,28.90
2022-10-28T15:38:39.352Z,28.80
2022-10-28T15:41:35.570Z,28.80
2022-10-28T15:44:05.579Z,28.60
2022-10-28T15:46:35.168Z,28.40
2022-10-28T15:49:03.657Z,28.30
2022-10-28T15:51:31.881Z,28.10
2022-10-28T15:54:12.209Z,28.00
2022-10-28T15:56:56.043Z,27.90
2022-10-28T15:59:26.863Z,27.90
2022-10-28T16:01:56.263Z,27.80
2022-10-28T16:04:43.962Z,27.70
2022-10-28T16:07:12.894Z,27.70
2022-10-28T16:09:46.498Z,27.70
2022-10-28T16:12:17.429Z,27.70
2022-10-28T16:14:48.732Z,27.60
2022-10-28T16:17:18.883Z,27.60
2022-10-28T16:19:53.455Z,27.60
2022-10-28T16:22:23.325Z,27.50
2022-10-28T16:24:53.251Z,27.40
2022-10-28T16:27:23.034Z,27.30
2022-10-28T16:29:52.938Z,27.20
2022-10-28T16:32:27.817Z,27.20
2022-10-28T16:34:57.059Z,27.20
2022-10-28T16:37:27.159Z,27.30
2022-10-28T16:39:55.966Z,27.30
2022-10-28T16:42:24.973Z,27.40
2022-10-28T16:44:54.660Z,27.40
2022-10-28T16:47:23.457Z,27.40
2022-10-28T16:49:54.492Z,27.40
2022-10-28T16:52:27.299Z,27.40
2022-10-28T16:54:55.468Z,27.40
2022-10-28T16:59:58.437Z,27.30
2022-10-28T17:02:27.953Z,27.30
2022-10-28T17:04:56.408Z,27.20
2022-10-28T17:07:24.590Z,27.10
2022-10-28T17:09:52.996Z,27.00
2022-10-28T17:12:23.287Z,26.80
2022-10-28T17:14:51.625Z,26.70
2022-10-28T17:17:21.300Z,26.70
2022-10-28T17:19:49.206Z,26.60
2022-10-28T17:22:17.433Z,26.60
2022-10-28T17:24:46.172Z,26.60
2022-10-28T17:27:14.551Z,26.70
2022-10-28T17:29:42.785Z,26.60
2022-10-28T17:32:11.447Z,26.50
2022-10-28T17:34:40.925Z,26.40
2022-10-28T17:37:09.034Z,26.40
2022-10-28T17:39:37.886Z,26.50
2022-10-28T17:42:06.343Z,26.60
2022-10-28T17:44:34.484Z,26.60
2022-10-28T17:47:03.005Z,26.60
2022-10-28T17:49:32.669Z,26.60
2022-10-28T17:52:01.956Z,26.60
2022-10-28T17:54:30.566Z,26.70
2022-10-28T17:56:58.682Z,26.60
2022-10-28T17:59:27.177Z,26.60
2022-10-28T18:01:55.593Z,26.60
2022-10-28T18:04:26.592Z,26.50
2022-10-28T18:06:56.520Z,26.50
2022-10-28T18:09:27.921Z,26.50
2022-10-28T18:11:56.157Z,26.50
2022-10-28T18:14:24.416Z,26.50
2022-10-28T18:16:53.123Z,26.50
2022-10-28T18:19:21.810Z,26.50
2022-10-28T18:21:50.525Z,26.50
2022-10-28T18:24:20.604Z,26.50
2022-10-28T18:26:55.918Z,26.40
2022-10-28T18:29:24.602Z,26.40
2022-10-28T18:32:04.573Z,26.40
2022-10-28T18:34:33.536Z,26.40
2022-10-28T18:37:04.390Z,26.40
2022-10-28T18:39:32.657Z,26.40
2022-10-28T18:42:03.320Z,26.40
2022-10-28T18:44:31.956Z,26.40
2022-10-28T18:47:00.713Z,26.40
2022-10-28T18:49:29.358Z,26.40
2022-10-28T18:51:59.621Z,26.40
2022-10-28T18:54:27.666Z,26.30
2022-10-28T18:56:57.681Z,26.30
2022-10-28T18:59:27.724Z,26.30
2022-10-28T19:01:56.520Z,26.30
2022-10-28T19:04:24.958Z,26.30
2022-10-28T19:06:53.083Z,26.30
2022-10-28T19:09:21.097Z,26.30
2022-10-28T19:11:49.146Z,26.20
2022-10-28T19:14:17.471Z,26.20
2022-10-28T19:16:46.909Z,26.20
2022-10-28T19:19:15.203Z,26.20
2022-10-28T19:21:43.829Z,26.20
2022-10-28T19:24:12.204Z,26.20
2022-10-28T19:26:40.438Z,26.10
2022-10-28T19:29:08.619Z,26.10
2022-10-28T19:31:39.087Z,26.00
2022-10-28T19:34:10.759Z,26.10
2022-10-28T19:36:39.330Z,26.00
2022-10-28T19:39:07.408Z,26.00
2022-10-28T19:41:35.801Z,26.00
2022-10-28T19:44:04.709Z,26.00
2022-10-28T19:46:34.436Z,26.00
2022-10-28T19:49:03.965Z,26.00
2022-10-28T19:51:34.605Z,26.00
2022-10-28T19:54:03.797Z,26.00
2022-10-28T19:56:33.625Z,25.90
2022-10-28T19:59:02.392Z,25.90
2022-10-28T20:01:32.502Z,25.90
2022-10-28T20:04:01.259Z,25.90
2022-10-28T20:06:33.881Z,25.90
2022-10-28T20:09:02.434Z,25.90
2022-10-28T20:11:32.582Z,25.80
2022-10-28T20:14:01.948Z,25.80
2022-10-28T20:16:30.342Z,25.80
2022-10-28T20:18:59.273Z,25.80
2022-10-28T20:21:28.847Z,25.80
2022-10-28T20:23:59.868Z,25.80
2022-10-28T20:26:29.896Z,25.80
2022-10-28T20:28:58.579Z,25.70
2022-10-28T20:31:29.465Z,25.70
2022-10-28T20:33:59.870Z,25.70
2022-10-28T20:36:29.562Z,25.70
2022-10-28T20:38:59.784Z,25.70
2022-10-28T20:41:30.532Z,25.60
2022-10-28T20:43:59.239Z,25.70
2022-10-28T20:46:27.993Z,25.60
2022-10-28T20:48:56.793Z,25.60
2022-10-28T20:51:26.609Z,25.60
2022-10-28T20:53:54.907Z,25.50
2022-10-28T20:56:25.888Z,25.50
2022-10-28T20:58:54.907Z,25.50
2022-10-28T21:01:25.288Z,25.50
2022-10-28T21:03:55.813Z,25.50
2022-10-28T21:06:24.195Z,25.50
2022-10-28T21:08:53.539Z,25.50
2022-10-28T21:11:22.876Z,25.50
2022-10-28T21:13:54.320Z,25.40
2022-10-28T21:16:23.335Z,25.40
2022-10-28T21:18:52.373Z,25.40
2022-10-28T21:21:21.525Z,25.40
2022-10-28T21:23:49.605Z,25.40
2022-10-28T21:26:17.876Z,25.40
2022-10-28T21:28:49.305Z,25.40
2022-10-28T21:31:19.264Z,25.40
2022-10-28T21:33:47.547Z,25.30
2022-10-28T21:36:17.483Z,25.30
2022-10-28T21:38:45.453Z,25.30
2022-10-28T21:41:15.837Z,25.30
2022-10-28T21:43:45.416Z,25.30
2022-10-28T21:46:13.523Z,25.30
2022-10-28T21:48:43.039Z,25.30
2022-10-28T21:51:14.983Z,25.20
2022-10-28T21:53:44.687Z,25.20
2022-10-28T21:56:17.767Z,25.20
2022-10-28T21:58:47.996Z,25.20
2022-10-28T22:01:18.130Z,25.20
2022-10-28T22:03:48.543Z,25.20
2022-10-28T22:06:16.690Z,25.10
2022-10-28T22:08:44.899Z,25.10
2022-10-28T22:11:15.030Z,25.10
2022-10-28T22:13:43.906Z,25.10
2022-10-28T22:16:14.181Z,25.10
2022-10-28T22:18:42.675Z,25.10
2022-10-28T22:21:13.930Z,25.00
2022-10-28T22:23:42.506Z,25.00
2022-10-28T22:26:13.318Z,25.00
2022-10-28T22:28:42.479Z,24.90
2022-10-28T22:31:12.671Z,24.90
2022-10-28T22:33:41.959Z,24.90
2022-10-28T22:36:13.406Z,24.90
2022-10-28T22:38:42.074Z,24.90
2022-10-28T22:41:14.035Z,24.90
2022-10-28T22:43:43.667Z,24.80
2022-10-28T22:46:13.304Z,24.80
2022-10-28T22:48:41.755Z,24.80
2022-10-28T22:51:11.405Z,24.80
2022-10-28T22:53:41.094Z,24.80
2022-10-28T22:56:13.243Z,24.70
2022-10-28T22:58:41.680Z,24.70
2022-10-28T23:01:11.462Z,24.70
2022-10-28T23:03:41.154Z,24.70
2022-10-28T23:06:12.337Z,24.70
2022-10-28T23:08:41.754Z,24.70
2022-10-28T23:11:11.290Z,24.60
2022-10-28T23:13:39.818Z,24.60
2022-10-28T23:16:09.881Z,24.60
2022-10-28T23:18:38.119Z,24.60
2022-10-28T23:21:07.937Z,24.60
2022-10-28T23:23:37.175Z,24.60
2022-10-28T23:26:05.771Z,24.50
2022-10-28T23:28:33.846Z,24.50
2022-10-28T23:31:02.531Z,24.50
2022-10-28T23:33:31.424Z,24.50
2022-10-28T23:36:00.743Z,24.50
2022-10-28T23:38:28.925Z,24.50
2022-10-28T23:40:59.958Z,24.40
2022-10-28T23:43:28.511Z,24.40
2022-10-28T23:45:57.224Z,24.50
2022-10-28T23:48:26.288Z,24.40
2022-10-28T23:50:54.673Z,24.40
2022-10-28T23:53:23.257Z,24.40
2022-10-28T23:55:52.549Z,24.40
2022-10-28T23:58:23.434Z,24.40
